Terminal Aerodrome Forecast
Issued by NWS Jackson, KY

Current Version | Previous Version | Text Only | Print | Product List | Glossary On
Versions: 1 2 3 4 5 6 7 8 9 10 11 12 13
000
FTUS43 KJKL 242328
TAFLOZ
TAF
KLOZ 242328Z 2500/2524 00000KT P6SM FEW050 SCT250
     FM251000 VRB03KT 6SM BR SCT250
     FM251300 00000KT P6SM SCT130
     FM251600 25004KT P6SM VCTS SCT050CB BKN250=

USA.gov is the U.S. government's official web portal to all federal, state and local government web resources and services.